Time;durP1;ratioP1;P1;durP2;ratioP2;P2;SDS_P1;SDS_P2;PMS_P1;PMS_P2;Temp;Humidity;BMP_temperature;BMP_pressure;BME280_temperature;BME280_humidity;BME280_pressure;Samples;Min_cycle;Max_cycle;Signal;HPM_P1;HPM_P2
2022/11/20 00:01:27;;;;;;;20.00;13.30;;;;;;;3.83;77.50;101472.87;1681297;85;20923;-92
2022/11/20 00:03:55;;;;;;;28.92;13.62;;;;;;;3.84;77.49;101475.02;1680980;84;20979;-90
2022/11/20 00:06:22;;;;;;;12.53;9.05;;;;;;;3.84;77.46;101491.88;1680964;84;20960;-90
2022/11/20 00:08:51;;;;;;;15.58;10.65;;;;;;;3.83;77.22;101494.92;1681024;84;20999;-89
2022/11/20 00:11:20;;;;;;;14.20;9.60;;;;;;;3.79;77.27;101496.30;1681290;84;21165;-91
2022/11/20 00:13:49;;;;;;;9.23;7.25;;;;;;;3.78;77.15;101493.28;1681164;84;20864;-89
2022/11/20 00:16:19;;;;;;;9.15;7.92;;;;;;;3.81;77.23;101495.84;1681335;84;20931;-91
2022/11/20 00:18:47;;;;;;;8.90;7.92;;;;;;;3.83;77.02;101504.00;1682126;85;20915;-89
2022/11/20 00:21:24;;;;;;;8.50;7.70;;;;;;;3.86;76.69;101500.48;1683887;81;20985;-89
2022/11/20 00:23:51;;;;;;;8.08;6.72;;;;;;;3.86;76.61;101506.53;1684945;82;21072;-91
2022/11/20 00:26:19;;;;;;;8.50;7.35;;;;;;;3.90;76.57;101498.27;1685996;82;20928;-92
2022/11/20 00:28:51;;;;;;;19.50;12.37;;;;;;;3.92;76.28;101517.25;1686009;82;20933;-91
2022/11/20 00:31:18;;;;;;;24.92;14.33;;;;;;;3.93;76.08;101541.01;1686221;82;20988;-91
2022/11/20 00:33:46;;;;;;;18.90;12.45;;;;;;;3.89;76.08;101553.20;1685993;82;21047;-91
2022/11/20 00:36:18;;;;;;;10.45;8.10;;;;;;;3.90;76.14;101537.18;1663793;82;21247;-90
2022/11/20 00:38:45;;;;;;;31.23;16.77;;;;;;;3.88;76.13;101532.01;1684844;82;21050;-91
2022/11/20 00:41:14;;;;;;;36.28;20.35;;;;;;;3.84;76.07;101522.56;1684891;82;21132;-89
2022/11/20 00:43:42;;;;;;;60.55;30.72;;;;;;;3.82;76.27;101511.80;1684581;82;20968;-89
2022/11/20 00:46:19;;;;;;;31.42;19.05;;;;;;;3.81;76.24;101500.58;1684948;82;21035;-91
2022/11/20 00:48:45;;;;;;;15.88;10.85;;;;;;;3.83;76.28;101496.67;1684531;82;21216;-90
2022/11/20 00:51:14;;;;;;;8.40;7.50;;;;;;;3.86;76.30;101495.30;1684574;82;20869;-92
2022/11/20 00:53:43;;;;;;;10.15;8.73;;;;;;;3.85;76.13;101500.94;1685186;82;20937;-90
2022/11/20 00:56:13;;;;;;;7.95;7.15;;;;;;;3.82;75.76;101491.89;1684879;82;20917;-91
2022/11/20 00:58:41;;;;;;;9.45;7.87;;;;;;;3.80;75.66;101484.61;1685306;82;21088;-89
2022/11/20 01:01:13;;;;;;;9.88;8.88;;;;;;;3.77;75.61;101466.48;1684659;85;21259;-90
2022/11/20 01:03:42;;;;;;;9.40;8.30;;;;;;;3.74;75.50;101452.28;1684875;85;21397;-89
2022/11/20 01:06:16;;;;;;;10.00;8.50;;;;;;;3.66;75.54;101447.22;1685540;83;20996;-90
2022/11/20 01:08:44;;;;;;;8.33;7.22;;;;;;;3.63;75.72;101452.92;1686039;83;20988;-90
2022/11/20 01:11:13;;;;;;;9.73;7.78;;;;;;;3.60;75.85;101456.84;1684000;83;20996;-91
2022/11/20 01:13:40;;;;;;;9.78;8.78;;;;;;;3.61;76.00;101459.42;1683693;83;21910;-89
2022/11/20 01:16:20;;;;;;;9.13;7.65;;;;;;;3.58;76.02;101467.69;1682976;85;21027;-90
2022/11/20 01:18:50;;;;;;;10.68;9.05;;;;;;;3.57;76.24;101460.36;1682683;83;20983;-89
2022/11/20 01:21:22;;;;;;;15.65;12.68;;;;;;;3.59;76.58;101458.59;1672213;85;20913;-90
2022/11/20 01:23:50;;;;;;;23.00;15.53;;;;;;;3.64;76.84;101453.32;1651206;85;21008;-90
2022/11/20 01:26:23;;;;;;;10.28;9.28;;;;;;;3.66;76.71;101441.19;1651580;87;21837;-90
2022/11/20 01:28:51;;;;;;;10.30;9.03;;;;;;;3.66;76.60;101447.67;1651940;85;20988;-89
2022/11/20 01:31:21;;;;;;;10.93;8.88;;;;;;;3.64;76.56;101452.88;1652257;85;21020;-90
2022/11/20 01:33:52;;;;;;;9.43;8.33;;;;;;;3.61;76.51;101450.34;1651782;86;20941;-90
2022/11/20 01:36:21;;;;;;;10.03;8.85;;;;;;;3.59;76.32;101430.52;1651801;85;20921;-89
2022/11/20 01:38:55;;;;;;;9.65;8.65;;;;;;;3.54;76.10;101446.16;1651732;85;21257;-89
2022/11/20 01:44:06;;;;;;;9.63;8.70;;;;;;;3.45;76.15;101448.91;1651692;85;20889;-90
2022/11/20 01:46:36;;;;;;;10.75;9.65;;;;;;;3.41;76.37;101443.36;1651732;85;20913;-90
2022/11/20 01:49:17;;;;;;;11.28;9.08;;;;;;;3.39;76.57;101448.56;1651809;85;20898;-91
2022/11/20 01:51:58;;;;;;;10.28;9.20;;;;;;;3.38;76.62;101424.83;1651915;86;21095;-89
2022/11/20 01:54:31;;;;;;;9.08;8.15;;;;;;;3.34;76.38;101411.95;1640982;86;20897;-87
2022/11/20 01:56:58;;;;;;;9.73;8.33;;;;;;;3.25;76.46;101419.44;1651920;85;21302;-89
2022/11/20 01:59:26;;;;;;;10.68;9.65;;;;;;;3.22;76.79;101415.14;1652165;85;20898;-91
2022/11/20 02:01:54;;;;;;;11.12;8.63;;;;;;;3.20;76.80;101406.98;1640801;86;20937;-91
2022/11/20 02:04:21;;;;;;;12.15;9.30;;;;;;;3.18;76.93;101396.66;1652236;85;21237;-89
2022/11/20 02:07:00;;;;;;;15.45;10.48;;;;;;;3.10;77.06;101417.95;1651703;85;20961;-91
2022/11/20 02:09:27;;;;;;;11.18;8.43;;;;;;;3.08;77.16;101428.77;1651765;85;20933;-90
2022/11/20 02:11:54;;;;;;;9.40;8.40;;;;;;;3.05;76.96;101437.91;1651676;85;20937;-91
2022/11/20 02:14:22;;;;;;;10.70;8.25;;;;;;;3.01;76.90;101442.71;1651730;85;20957;-92
2022/11/20 02:16:49;;;;;;;10.00;8.50;;;;;;;3.00;76.66;101444.87;1651650;85;21273;-91
2022/11/20 02:19:27;;;;;;;10.80;9.63;;;;;;;3.00;76.48;101448.75;1651981;85;20870;-91
2022/11/20 02:22:18;;;;;;;10.72;9.05;;;;;;;3.00;76.36;101432.80;1653902;83;21438;-90
2022/11/20 02:24:45;;;;;;;10.58;9.48;;;;;;;3.00;76.13;101431.91;1687452;84;21430;-90
2022/11/20 02:27:13;;;;;;;11.38;8.98;;;;;;;2.96;76.10;101456.16;1687428;84;20996;-90
2022/11/20 02:29:57;;;;;;;10.63;9.18;;;;;;;2.94;76.11;101462.67;1687223;84;21385;-91
2022/11/20 02:32:30;;;;;;;11.68;8.78;;;;;;;2.93;76.05;101445.84;1687824;84;20857;-87
2022/11/20 02:35:00;;;;;;;13.75;9.30;;;;;;;2.92;76.13;101442.86;1687762;84;20975;-89
2022/11/20 02:37:32;;;;;;;11.18;9.35;;;;;;;2.88;76.21;101449.80;1686752;84;21462;-90
2022/11/20 02:39:58;;;;;;;9.60;8.60;;;;;;;2.90;76.15;101451.48;1688242;84;20907;-90
2022/11/20 02:42:25;;;;;;;10.32;9.18;;;;;;;2.94;76.44;101465.27;1688000;84;21143;-89
2022/11/20 02:44:51;;;;;;;12.25;9.60;;;;;;;3.01;76.33;101466.03;1687546;84;21004;-89
2022/11/20 02:47:19;;;;;;;11.65;9.80;;;;;;;3.04;76.07;101440.06;1687876;84;20896;-90
2022/11/20 02:49:46;;;;;;;8.45;7.65;;;;;;;3.06;75.90;101420.17;1687441;84;20928;-91
2022/11/20 02:52:13;;;;;;;10.88;8.20;;;;;;;3.04;75.51;101408.52;1687517;84;20885;-90
2022/11/20 02:54:40;;;;;;;10.75;8.90;;;;;;;3.01;75.41;101407.28;1687384;84;21188;-89
2022/11/20 02:57:07;;;;;;;10.20;8.95;;;;;;;2.98;75.39;101411.65;1687686;84;20960;-91
2022/11/20 02:59:34;;;;;;;11.25;8.60;;;;;;;2.96;75.41;101420.77;1687377;84;20929;-90
2022/11/20 03:02:01;;;;;;;9.40;8.43;;;;;;;2.97;75.43;101439.75;1687228;85;20964;-90
2022/11/20 03:04:27;;;;;;;10.10;8.95;;;;;;;2.96;75.52;101439.31;1687455;84;20928;-91
2022/11/20 03:06:56;;;;;;;11.05;9.33;;;;;;;2.96;75.60;101443.20;1687163;85;21177;-91
2022/11/20 03:09:25;;;;;;;9.88;8.70;;;;;;;2.97;75.70;101444.48;1687389;84;20889;-91
2022/11/20 03:11:51;;;;;;;11.10;8.53;;;;;;;3.00;75.39;101455.23;1688335;84;21453;-91
2022/11/20 03:14:18;;;;;;;9.45;8.55;;;;;;;3.01;75.17;101438.83;1689259;84;20920;-90
2022/11/20 03:16:44;;;;;;;10.43;8.73;;;;;;;2.98;75.10;101429.38;1689737;85;20845;-87
2022/11/20 03:19:12;;;;;;;10.90;8.78;;;;;;;2.96;75.04;101436.72;1689900;81;21112;-90
2022/11/20 03:21:39;;;;;;;9.40;7.97;;;;;;;2.94;74.99;101430.29;1687975;84;20881;-88
2022/11/20 03:24:06;;;;;;;11.00;8.88;;;;;;;2.89;74.69;101431.66;1683380;84;20903;-90
2022/11/20 03:26:34;;;;;;;9.20;8.28;;;;;;;2.86;74.77;101427.80;1681086;84;20892;-88
2022/11/20 03:29:04;;;;;;;9.25;8.25;;;;;;;2.84;74.77;101424.38;1681696;84;20959;-91
2022/11/20 03:31:40;;;;;;;8.88;8.08;;;;;;;2.81;75.02;101430.06;1664863;85;21116;-90
2022/11/20 03:34:07;;;;;;;10.38;9.05;;;;;;;2.81;75.08;101448.19;1681124;84;20895;-88
2022/11/20 03:36:40;;;;;;;9.55;8.38;;;;;;;2.82;75.14;101451.18;1681022;84;20896;-90
2022/11/20 03:39:07;;;;;;;8.75;7.67;;;;;;;2.83;75.25;101460.23;1680692;85;20896;-90
2022/11/20 03:41:38;;;;;;;9.15;8.25;;;;;;;2.85;75.13;101479.66;1681076;84;20849;-90
2022/11/20 03:44:07;;;;;;;9.93;7.75;;;;;;;2.82;75.09;101483.11;1681023;85;21186;-89
2022/11/20 03:46:34;;;;;;;9.38;8.03;;;;;;;2.83;75.19;101489.17;1680861;84;21478;-90
2022/11/20 03:49:01;;;;;;;9.58;7.92;;;;;;;2.85;75.21;101497.78;1680991;84;20888;-90
2022/11/20 03:51:30;;;;;;;11.12;9.88;;;;;;;2.86;75.25;101495.59;1680858;84;21328;-87
2022/11/20 03:54:00;;;;;;;9.78;8.78;;;;;;;2.83;75.18;101499.53;1681313;84;21552;-86
2022/11/20 03:56:30;;;;;;;10.90;9.33;;;;;;;2.79;74.85;101491.38;1681741;84;21213;-88
2022/11/20 03:58:57;;;;;;;11.97;9.75;;;;;;;2.76;75.17;101504.36;1681621;84;21465;-88
2022/11/20 04:01:28;;;;;;;10.18;8.53;;;;;;;2.74;75.23;101513.91;1683561;81;20896;-90
2022/11/20 04:03:56;;;;;;;9.73;8.73;;;;;;;2.74;75.40;101501.81;1683709;81;20872;-87
2022/11/20 04:06:31;;;;;;;9.33;8.03;;;;;;;2.75;75.28;101486.67;1683977;81;20956;-89
2022/11/20 04:08:58;;;;;;;12.65;10.65;;;;;;;2.73;75.23;101502.67;1665933;85;21132;-89
2022/11/20 04:11:31;;;;;;;9.73;8.63;;;;;;;2.73;75.12;101488.42;1681412;85;21039;-88
2022/11/20 04:14:04;;;;;;;10.65;8.70;;;;;;;2.73;75.10;101487.13;1682112;84;20931;-90
2022/11/20 04:19:00;;;;;;;11.35;10.03;;;;;;;2.82;75.00;101466.72;1841897;77;22381;-89
2022/11/20 04:21:28;;;;;;;9.90;8.90;;;;;;;2.78;74.77;101459.87;1817672;78;20868;-89
2022/11/20 04:23:55;;;;;;;15.25;13.65;;;;;;;2.77;74.38;101453.84;1783635;79;21008;-90
2022/11/20 04:26:25;;;;;;;11.55;10.35;;;;;;;2.76;74.46;101459.91;1817329;79;20899;-91
2022/11/20 04:28:51;;;;;;;11.90;10.70;;;;;;;2.75;74.52;101441.34;1817321;79;20884;-88
2022/11/20 04:31:26;;;;;;;11.80;10.13;;;;;;;2.76;74.46;101446.97;1810183;79;20912;-90
2022/11/20 04:33:53;;;;;;;12.20;9.83;;;;;;;2.74;74.27;101450.02;1817521;79;20876;-90
2022/11/20 04:36:23;;;;;;;12.47;10.03;;;;;;;2.73;74.15;101435.78;1784827;79;21250;-90
2022/11/20 04:38:52;;;;;;;14.03;10.13;;;;;;;2.73;74.36;101444.84;1819458;79;20892;-89
2022/11/20 04:41:20;;;;;;;12.05;10.65;;;;;;;2.73;74.36;101440.95;1820507;78;20951;-91
2022/11/20 04:43:50;;;;;;;11.35;8.43;;;;;;;2.72;74.27;101440.55;1819540;78;20872;-89
2022/11/20 04:46:17;;;;;;;11.43;9.13;;;;;;;2.68;74.05;101446.20;1816812;79;20939;-89
2022/11/20 04:48:45;;;;;;;11.60;10.30;;;;;;;2.61;74.04;101454.50;1817812;78;21299;-88
2022/11/20 04:51:12;;;;;;;12.45;9.93;;;;;;;2.58;74.28;101448.08;1817447;78;20860;-87
2022/11/20 04:53:40;;;;;;;11.15;9.88;;;;;;;2.55;74.28;101441.62;1817316;79;20801;-90
2022/11/20 04:56:08;;;;;;;11.65;10.45;;;;;;;2.51;74.49;101432.19;1817300;79;20918;-89
2022/11/20 04:58:35;;;;;;;12.20;9.33;;;;;;;2.49;74.79;101430.93;1817719;79;20915;-90
2022/11/20 05:01:07;;;;;;;11.38;10.00;;;;;;;2.52;75.12;101446.86;1818682;79;21211;-90
2022/11/20 05:03:34;;;;;;;11.08;9.90;;;;;;;2.56;75.45;101458.05;1817411;79;20852;-89
2022/11/20 05:06:04;;;;;;;11.97;10.55;;;;;;;2.56;75.70;101475.72;1817223;79;20872;-91
2022/11/20 05:08:31;;;;;;;12.70;10.20;;;;;;;2.56;75.76;101467.95;1817262;78;20900;-92
2022/11/20 05:11:04;;;;;;;13.00;11.53;;;;;;;2.53;76.00;101452.88;1817287;79;20848;-89
2022/11/20 05:13:31;;;;;;;12.68;10.65;;;;;;;2.49;76.45;101459.85;1817162;78;21267;-90
2022/11/20 05:16:06;;;;;;;12.95;10.93;;;;;;;2.51;76.81;101450.75;1817404;78;21202;-90
2022/11/20 05:18:34;;;;;;;10.50;8.17;;;;;;;2.51;77.04;101449.45;1804292;79;20934;-90
2022/11/20 05:21:02;;;;;;;18.57;16.37;;;;;;;2.52;77.30;101453.77;1798491;79;21352;-93
2022/11/20 05:23:30;;;;;;;12.13;10.80;;;;;;;2.54;77.67;101447.69;1798810;79;20886;-91
2022/11/20 05:25:58;;;;;;;15.83;12.28;;;;;;;2.59;77.69;101452.81;1798726;78;21154;-92
2022/11/20 05:28:26;;;;;;;12.60;11.00;;;;;;;2.60;77.65;101470.92;1798262;78;21501;-90
2022/11/20 05:30:54;;;;;;;14.58;12.07;;;;;;;2.61;77.64;101471.33;1797886;79;21031;-91
2022/11/20 05:33:21;;;;;;;13.98;12.58;;;;;;;2.61;77.66;101480.84;1797642;79;21403;-91
2022/11/20 05:35:48;;;;;;;11.43;10.23;;;;;;;2.62;77.71;101470.87;1797655;79;20894;-90
2022/11/20 05:38:15;;;;;;;32.85;23.95;;;;;;;2.63;77.58;101476.50;1797660;79;21273;-89
2022/11/20 05:40:41;;;;;;;14.18;12.37;;;;;;;2.60;77.64;101479.10;1797520;78;20895;-90
2022/11/20 05:43:08;;;;;;;12.82;11.45;;;;;;;2.60;77.90;101480.40;1797667;79;21384;-90
2022/11/20 05:45:35;;;;;;;14.85;11.63;;;;;;;2.59;77.78;101454.10;1797690;78;20950;-90
2022/11/20 05:48:04;;;;;;;14.18;12.78;;;;;;;2.56;77.83;101429.56;1797675;79;20925;-89
2022/11/20 05:50:31;;;;;;;13.68;11.65;;;;;;;2.54;77.90;101445.11;1798074;78;21885;-89
2022/11/20 05:52:59;;;;;;;13.03;11.48;;;;;;;2.54;78.02;101458.05;1797621;79;20938;-89
2022/11/20 05:55:27;;;;;;;13.15;11.25;;;;;;;2.54;77.97;101440.37;1797825;79;20966;-89
2022/11/20 05:57:54;;;;;;;15.15;12.70;;;;;;;2.46;78.14;101412.83;1797941;78;20946;-88
2022/11/20 06:00:21;;;;;;;13.22;11.93;;;;;;;2.40;78.36;101411.64;1798440;78;21000;-89
2022/11/20 06:02:48;;;;;;;13.62;11.65;;;;;;;2.36;78.69;101403.50;1799132;78;21168;-89
2022/11/20 06:05:15;;;;;;;13.62;12.18;;;;;;;2.33;78.95;101407.84;1800810;78;20907;-90
2022/11/20 06:07:43;;;;;;;15.10;12.07;;;;;;;2.27;79.09;101399.74;1799958;78;20894;-89
2022/11/20 06:10:10;;;;;;;15.25;13.20;;;;;;;2.26;79.50;101405.33;1797891;79;20929;-90
2022/11/20 06:12:37;;;;;;;14.90;13.05;;;;;;;2.32;80.12;101411.33;1798678;78;20922;-90
2022/11/20 06:15:05;;;;;;;17.00;13.90;;;;;;;2.39;79.78;101409.91;1798067;79;21163;-89
2022/11/20 06:17:33;;;;;;;15.72;13.18;;;;;;;2.41;79.41;101417.22;1798993;77;20877;-90
2022/11/20 06:20:01;;;;;;;16.57;13.13;;;;;;;2.43;79.18;101431.01;1807622;79;20885;-89
2022/11/20 06:22:30;;;;;;;15.95;14.23;;;;;;;2.46;78.96;101421.89;1806837;79;20940;-88
2022/11/20 06:24:56;;;;;;;15.53;13.70;;;;;;;2.47;78.69;101416.30;1807391;79;20909;-89
2022/11/20 06:27:24;;;;;;;16.02;12.82;;;;;;;2.49;78.72;101419.73;1806311;79;21147;-91
2022/11/20 06:29:50;;;;;;;15.98;13.85;;;;;;;2.53;78.61;101443.83;1806754;79;20861;-90
2022/11/20 06:32:17;;;;;;;16.32;12.63;;;;;;;2.48;78.22;101442.59;1805986;79;20909;-89
2022/11/20 06:34:43;;;;;;;16.30;12.28;;;;;;;2.46;78.45;101428.81;1805951;79;21275;-89
2022/11/20 06:37:10;;;;;;;15.90;12.70;;;;;;;2.49;78.00;101414.10;1805795;79;20904;-91
2022/11/20 06:39:37;;;;;;;17.82;12.65;;;;;;;2.47;78.08;101399.03;1805667;79;21143;-89
2022/11/20 06:42:04;;;;;;;14.73;12.70;;;;;;;2.47;78.20;101395.15;1805688;79;20861;-88
2022/11/20 06:44:31;;;;;;;16.02;13.60;;;;;;;2.52;78.42;101405.88;1806387;79;20865;-88
2022/11/20 06:46:58;;;;;;;14.90;12.70;;;;;;;2.54;78.08;101402.84;1806774;79;20865;-89
2022/11/20 06:49:25;;;;;;;17.37;13.90;;;;;;;2.47;77.90;101400.77;1807671;79;20906;-88
2022/11/20 06:51:51;;;;;;;16.67;13.55;;;;;;;2.39;77.96;101394.38;1813505;79;21248;-90
2022/11/20 06:54:18;;;;;;;17.87;14.10;;;;;;;2.31;77.89;101398.80;1807377;79;20900;-90
2022/11/20 06:56:48;;;;;;;19.17;15.63;;;;;;;2.22;78.53;101380.81;1805855;79;21015;-90
2022/11/20 06:59:15;;;;;;;19.42;16.05;;;;;;;2.21;78.71;101392.05;1806011;79;20971;-90
2022/11/20 07:01:42;;;;;;;21.60;16.82;;;;;;;2.19;78.89;101404.15;1806003;79;20888;-90
2022/11/20 07:04:08;;;;;;;22.10;17.48;;;;;;;2.20;78.94;101404.14;1805961;79;21369;-91
2022/11/20 07:06:36;;;;;;;22.82;17.40;;;;;;;2.22;78.90;101395.05;1806007;79;20932;-89
2022/11/20 07:09:04;;;;;;;27.45;19.50;;;;;;;2.23;79.06;101395.48;1806175;79;20810;-89
2022/11/20 07:11:31;;;;;;;25.20;17.67;;;;;;;2.25;79.02;101390.70;1805985;79;20896;-89
2022/11/20 07:13:58;;;;;;;30.25;18.82;;;;;;;2.25;78.96;101398.45;1806305;79;20892;-92
2022/11/20 07:16:24;;;;;;;25.80;19.75;;;;;;;2.23;79.02;101421.36;1806197;79;21133;-89
2022/11/20 07:18:52;;;;;;;24.32;18.02;;;;;;;2.22;79.07;101429.56;1823587;78;20809;-88
2022/11/20 07:21:21;;;;;;;23.95;17.92;;;;;;;2.25;79.31;101432.55;1834823;78;20820;-89
2022/11/20 07:23:51;;;;;;;23.22;14.70;;;;;;;2.28;78.96;101440.26;1833962;78;21496;-89
2022/11/20 07:26:19;;;;;;;23.55;18.05;;;;;;;2.28;78.68;101464.40;1834385;78;20931;-89
2022/11/20 07:28:47;;;;;;;20.20;15.93;;;;;;;2.31;78.90;101479.47;1835256;78;21200;-90
2022/11/20 07:31:13;;;;;;;20.25;16.35;;;;;;;2.34;78.90;101482.89;1834803;78;20935;-90
2022/11/20 07:33:41;;;;;;;20.95;15.93;;;;;;;2.34;78.76;101458.30;1834368;78;20884;-92
2022/11/20 07:36:08;;;;;;;23.02;16.75;;;;;;;2.34;79.20;101446.66;1833965;78;20930;-91
2022/11/20 07:38:36;;;;;;;20.12;14.93;;;;;;;2.35;79.30;101445.77;1834373;78;20997;-90
2022/11/20 07:41:03;;;;;;;19.65;15.70;;;;;;;2.41;79.54;101464.27;1802286;78;21002;-90
2022/11/20 07:43:30;;;;;;;19.45;14.07;;;;;;;2.48;79.77;101476.25;1833998;78;20887;-89
2022/11/20 07:45:59;;;;;;;19.30;15.28;;;;;;;2.54;79.62;101458.50;1834523;78;20907;-91
2022/11/20 07:48:27;;;;;;;22.87;16.07;;;;;;;2.52;79.19;101420.12;1831160;78;20946;-90
2022/11/20 07:51:01;;;;;;;21.25;16.35;;;;;;;2.46;79.27;101411.98;1834064;78;20997;-90
2022/11/20 07:56:32;;;;;;;20.95;14.60;;;;;;;2.36;79.71;101420.77;1710443;81;20918;-89
2022/11/20 07:58:59;;;;;;;18.57;14.95;;;;;;;2.34;79.83;101424.66;1761038;80;20867;-87
2022/11/20 08:01:26;;;;;;;19.90;14.87;;;;;;;2.32;79.86;101450.15;1761103;81;20940;-88
2022/11/20 08:03:53;;;;;;;20.77;15.80;;;;;;;2.34;79.86;101462.63;1797608;79;20902;-88
2022/11/20 08:06:19;;;;;;;18.02;15.28;;;;;;;2.38;79.96;101441.87;1791874;80;21799;-92
2022/11/20 08:08:49;;;;;;;17.07;13.95;;;;;;;2.43;80.18;101405.56;1791835;80;21010;-90
2022/11/20 08:14:14;;;;;;;18.07;15.18;;;;;;;2.45;79.91;101390.88;1828335;78;21396;-87
2022/11/20 08:16:45;;;;;;;20.25;14.78;;;;;;;2.46;80.19;101397.30;1831011;78;20860;-93
2022/11/20 08:19:14;;;;;;;16.95;14.10;;;;;;;2.52;80.21;101387.76;1797963;78;21106;-90
2022/11/20 08:21:41;;;;;;;20.50;15.05;;;;;;;2.53;80.20;101376.51;1828810;78;20872;-90
2022/11/20 08:24:08;;;;;;;17.37;14.38;;;;;;;2.57;80.26;101379.48;1828192;78;20868;-90
2022/11/20 08:26:37;;;;;;;17.82;14.47;;;;;;;2.58;80.06;101392.41;1828134;78;20950;-88
2022/11/20 08:29:06;;;;;;;23.10;17.12;;;;;;;2.59;80.14;101373.39;1828420;78;20903;-90
2022/11/20 08:31:32;;;;;;;23.77;16.87;;;;;;;2.61;80.18;101370.79;1828732;78;21237;-89
2022/11/20 08:34:00;;;;;;;26.42;17.90;;;;;;;2.61;80.04;101353.96;1829114;78;20900;-88
2022/11/20 08:36:28;;;;;;;24.47;17.42;;;;;;;2.59;80.25;101355.27;1830537;78;20885;-88
2022/11/20 08:38:55;;;;;;;28.65;20.32;;;;;;;2.58;80.23;101341.92;1829802;78;20883;-91
2022/11/20 08:41:25;;;;;;;27.30;19.32;;;;;;;2.57;80.39;101334.17;1828626;78;20859;-89
2022/11/20 08:44:01;;;;;;;24.67;18.70;;;;;;;2.57;80.49;101318.19;1828195;78;21303;-90
2022/11/20 08:46:40;;;;;;;26.07;17.57;;;;;;;2.58;80.60;101312.14;1828417;78;20970;-91
2022/11/20 08:49:11;;;;;;;23.60;16.60;;;;;;;2.61;80.72;101308.20;1828522;78;21053;-91
2022/11/20 08:51:39;;;;;;;18.75;14.63;;;;;;;2.66;81.03;101297.32;1828092;78;20951;-89
2022/11/20 08:54:06;;;;;;;19.73;14.90;;;;;;;2.72;80.94;101290.35;1828709;78;20848;-90
2022/11/20 08:56:33;;;;;;;20.60;15.75;;;;;;;2.72;80.75;101287.77;1827889;78;21154;-91
2022/11/20 08:59:01;;;;;;;18.92;14.33;;;;;;;2.66;80.87;101282.23;1826182;78;20904;-90
2022/11/20 09:01:28;;;;;;;20.02;14.60;;;;;;;2.63;81.10;101291.36;1826128;78;21431;-89
2022/11/20 09:04:01;;;;;;;22.58;15.08;;;;;;;2.66;81.37;101288.70;1826329;78;21341;-89
2022/11/20 09:06:25;;;;;;;17.90;14.47;;;;;;;2.70;81.42;101261.89;1825637;77;20860;-88
2022/11/20 09:08:53;;;;;;;19.60;15.50;;;;;;;2.74;81.43;101279.53;1826483;78;21305;-88
2022/11/20 09:11:21;;;;;;;23.98;17.52;;;;;;;2.71;81.27;101251.92;1826465;78;20892;-90
2022/11/20 09:13:48;;;;;;;21.55;15.90;;;;;;;2.65;81.48;101238.66;1827483;78;20895;-89
2022/11/20 09:16:15;;;;;;;20.75;16.23;;;;;;;2.63;81.68;101245.59;1827652;78;20884;-88
2022/11/20 09:18:43;;;;;;;24.23;16.45;;;;;;;2.59;81.77;101237.91;1826894;78;20852;-87
2022/11/20 09:21:12;;;;;;;21.73;15.85;;;;;;;2.56;82.02;101236.68;1826794;78;21241;-90
2022/11/20 09:23:39;;;;;;;20.50;16.07;;;;;;;2.53;82.32;101238.01;1827135;78;21049;-89
2022/11/20 09:26:08;;;;;;;25.50;19.17;;;;;;;2.56;82.49;101244.45;1827644;78;20856;-89
2022/11/20 09:28:35;;;;;;;19.87;16.10;;;;;;;2.59;82.59;101241.80;1828547;78;20903;-90
2022/11/20 09:31:08;;;;;;;19.40;15.23;;;;;;;2.63;82.55;101235.69;1826580;78;21472;-88
2022/11/20 09:33:35;;;;;;;20.50;16.87;;;;;;;2.66;82.68;101245.53;1826558;78;21227;-89
2022/11/20 09:36:02;;;;;;;21.82;16.90;;;;;;;2.66;82.58;101249.41;1826235;78;20844;-89
2022/11/20 09:38:29;;;;;;;20.77;16.27;;;;;;;2.65;82.78;101241.70;1826258;78;21345;-89
2022/11/20 09:41:05;;;;;;;19.52;17.15;;;;;;;2.68;83.00;101231.27;1826729;78;20908;-88
2022/11/20 09:44:00;;;;;;;20.27;16.17;;;;;;;2.72;83.12;101232.09;1826737;78;21101;-89
2022/11/20 09:50:38;;;;;;;22.75;16.35;;;;;;;2.73;83.11;101210.02;1697093;84;20943;-91
2022/11/20 09:53:15;;;;;;;27.25;20.05;;;;;;;2.67;83.49;101195.92;1657413;86;20977;-89
2022/11/20 09:55:42;;;;;;;28.00;18.95;;;;;;;2.63;83.81;101183.91;1738698;82;20998;-88
2022/11/20 09:58:29;;;;;;;32.88;20.88;;;;;;;2.63;83.95;101186.05;1804894;79;20992;-90
2022/11/20 10:01:02;;;;;;;26.65;20.27;;;;;;;2.61;84.18;101177.45;1747411;81;21182;-92
2022/11/20 10:03:57;;;;;;;28.75;20.27;;;;;;;2.62;84.51;101179.17;1769847;79;20998;-89
2022/11/20 10:06:45;;;;;;;27.05;19.82;;;;;;;2.67;84.61;101180.38;1790123;80;20841;-90
2022/11/20 10:09:32;;;;;;;24.98;19.23;;;;;;;2.69;84.49;101185.06;1783937;80;20989;-91
2022/11/20 10:12:10;;;;;;;26.80;19.17;;;;;;;2.66;84.52;101189.02;1790424;79;20923;-90
2022/11/20 10:15:22;;;;;;;26.52;20.20;;;;;;;2.66;84.67;101182.09;1759854;81;20944;-91
2022/11/20 10:18:23;;;;;;;28.70;20.85;;;;;;;2.68;84.73;101179.04;1760079;80;21019;-88
2022/11/20 10:21:19;;;;;;;32.90;21.93;;;;;;;2.70;84.87;101172.09;1670781;84;20970;-88
2022/11/20 10:24:34;;;;;;;29.42;21.42;;;;;;;2.74;84.99;101171.61;1698508;83;20864;-88
2022/11/20 10:27:48;;;;;;;30.95;21.20;;;;;;;2.79;84.99;101159.87;1753020;81;21018;-87
2022/11/20 10:30:21;;;;;;;32.17;21.42;;;;;;;2.76;84.95;101126.24;1783972;80;21171;-89
2022/11/20 10:33:05;;;;;;;29.00;20.60;;;;;;;2.73;85.22;101118.09;1790058;80;21396;-88
2022/11/20 10:35:38;;;;;;;34.53;22.82;;;;;;;2.74;85.52;101119.82;1758261;81;20895;-88
2022/11/20 10:38:17;;;;;;;30.90;21.90;;;;;;;2.74;85.62;101111.20;1758675;80;20927;-87
2022/11/20 10:41:24;;;;;;;32.63;22.73;;;;;;;2.77;85.65;101107.25;1783972;80;20931;-89
2022/11/20 10:43:31;;;;;;;34.98;24.23;;;;;;;2.75;85.67;101096.06;1785897;80;22113;-87
2022/11/20 10:46:05;;;;;;;29.75;19.65;;;;;;;2.75;85.89;101087.84;1783748;79;21424;-87
2022/11/20 10:48:32;;;;;;;27.93;19.92;;;;;;;2.72;85.98;101077.56;1790317;80;20990;-86
2022/11/20 10:51:38;;;;;;;29.50;20.27;;;;;;;2.66;86.14;101080.27;1784288;80;21002;-85
2022/11/20 10:54:20;;;;;;;30.17;20.40;;;;;;;2.63;86.40;101076.45;1790848;79;21349;-88
2022/11/20 10:56:51;;;;;;;30.10;20.72;;;;;;;2.64;86.66;101058.28;1781833;80;21102;-88
2022/11/20 10:59:47;;;;;;;27.70;20.12;;;;;;;2.64;86.59;101046.63;1773046;81;21511;-89
2022/11/20 11:02:22;;;;;;;27.42;19.55;;;;;;;2.60;86.78;101065.72;1773575;81;20935;-89
2022/11/20 11:04:53;;;;;;;30.80;19.65;;;;;;;2.61;86.96;101061.39;1772995;81;20991;-89
2022/11/20 11:07:27;;;;;;;25.62;18.45;;;;;;;2.62;87.09;101068.25;1773464;81;20896;-88
2022/11/20 11:09:56;;;;;;;28.30;20.30;;;;;;;2.63;87.17;101073.86;1774066;81;21879;-88
2022/11/20 11:12:25;;;;;;;31.48;21.87;;;;;;;2.63;87.22;101060.47;1774721;81;20912;-88
2022/11/20 11:14:57;;;;;;;26.55;19.77;;;;;;;2.65;87.10;101068.22;1773757;80;20908;-86
2022/11/20 11:17:30;;;;;;;31.97;20.80;;;;;;;2.61;87.04;101054.47;1773764;80;20932;-85
2022/11/20 11:20:06;;;;;;;27.22;19.30;;;;;;;2.57;87.27;101054.11;1773062;81;20956;-84
2022/11/20 11:22:44;;;;;;;28.05;19.42;;;;;;;2.53;87.55;101048.58;1776099;81;21266;-89
2022/11/20 11:25:34;;;;;;;26.52;18.67;;;;;;;2.49;87.98;101050.84;1775646;79;20971;-89
2022/11/20 11:28:05;;;;;;;28.87;19.23;;;;;;;2.48;88.28;101046.08;1773018;81;20936;-88
2022/11/20 11:30:43;;;;;;;23.70;17.62;;;;;;;2.49;88.51;101046.52;1774592;81;20900;-87
2022/11/20 11:33:13;;;;;;;22.75;17.30;;;;;;;2.51;88.74;101026.20;1775781;80;20971;-88
2022/11/20 11:35:52;;;;;;;24.82;17.75;;;;;;;2.51;88.97;101020.58;1794691;77;21554;-89
2022/11/20 11:38:39;;;;;;;20.35;16.42;;;;;;;2.54;89.16;101024.86;1750701;77;21363;31
2022/11/20 11:41:09;;;;;;;21.52;15.78;;;;;;;2.57;89.17;101023.05;1645198;86;21003;-89
2022/11/20 11:46:31;;;;;;;24.20;16.45;;;;;;;2.59;89.20;101040.70;1643098;86;20872;-90
2022/11/20 11:49:11;;;;;;;25.32;18.17;;;;;;;2.60;89.25;101041.55;1643134;86;20931;-88
2022/11/20 11:52:35;;;;;;;24.52;17.57;;;;;;;2.62;89.48;101035.89;1643056;86;21007;-89
2022/11/20 11:55:04;;;;;;;25.10;16.93;;;;;;;2.66;89.44;101038.84;1644102;86;20915;-87
2022/11/20 11:57:53;;;;;;;23.22;15.58;;;;;;;2.68;89.63;101028.01;1642786;86;20963;-91